Time;durP1;ratioP1;P1;durP2;ratioP2;P2;SDS_P1;SDS_P2;PMS_P1;PMS_P2;Temp;Humidity;BMP_temperature;BMP_pressure;BME280_temperature;BME280_humidity;BME280_pressure;Samples;Min_cycle;Max_cycle;Signal;HPM_P1;HPM_P2
2021/04/06 00:02:07;;;;;;;0.60;0.60;;;-1.00;99.90;;;;;;6087115;23;20178;-83
2021/04/06 00:04:39;;;;;;;0.60;0.60;;;-1.00;99.90;;;;;;6088025;23;20170;-83
2021/04/06 00:07:14;;;;;;;0.60;0.60;;;-1.00;99.90;;;;;;6087224;23;20179;-83
2021/04/06 00:09:46;;;;;;;0.50;0.50;;;-0.70;99.90;;;;;;6087168;23;20296;-83
2021/04/06 00:12:15;;;;;;;0.60;0.60;;;-1.00;99.90;;;;;;6087388;23;20174;-83
2021/04/06 00:14:43;;;;;;;0.60;0.60;;;-1.00;99.90;;;;;;6087283;23;20218;-83
2021/04/06 00:17:13;;;;;;;0.60;0.60;;;-0.90;99.90;;;;;;6087330;23;20570;-83
2021/04/06 00:19:42;;;;;;;0.60;0.60;;;-1.00;99.90;;;;;;6087581;23;20167;-83
2021/04/06 00:22:11;;;;;;;0.60;0.60;;;-0.90;99.90;;;;;;6087072;23;20186;-83
2021/04/06 00:24:43;;;;;;;0.50;0.50;;;-1.00;99.90;;;;;;6086855;23;20195;-83
2021/04/06 00:27:14;;;;;;;0.50;0.50;;;-1.00;99.90;;;;;;6087448;23;20167;-83
2021/04/06 00:29:42;;;;;;;0.50;0.50;;;-1.00;99.90;;;;;;6087151;23;20360;-83
2021/04/06 00:32:09;;;;;;;0.50;0.50;;;-1.00;99.90;;;;;;6087661;23;20184;-83
2021/04/06 00:34:37;;;;;;;0.60;0.60;;;-1.00;99.90;;;;;;6087361;23;20185;-82
2021/04/06 00:37:07;;;;;;;0.60;0.60;;;-1.00;99.90;;;;;;6087705;23;20180;-83
2021/04/06 00:39:36;;;;;;;0.60;0.60;;;-1.00;99.90;;;;;;6087419;23;20447;-83
2021/04/06 00:42:07;;;;;;;0.52;0.52;;;-1.00;99.90;;;;;;6087227;23;20171;-83
2021/04/06 00:44:37;;;;;;;0.60;0.60;;;-1.00;99.90;;;;;;6087364;23;20164;-83
2021/04/06 00:47:04;;;;;;;0.50;0.50;;;-1.00;99.90;;;;;;6087292;23;20265;-82
2021/04/06 00:49:33;;;;;;;0.60;0.60;;;-1.00;99.90;;;;;;6087375;23;20199;-83
2021/04/06 00:51:59;;;;;;;0.50;0.50;;;-1.10;99.90;;;;;;6087206;23;20203;-83
2021/04/06 00:54:26;;;;;;;0.60;0.60;;;-0.70;99.90;;;;;;6087324;23;20179;-81
2021/04/06 00:56:59;;;;;;;0.60;0.60;;;-1.10;99.90;;;;;;6087625;23;20187;-83
2021/04/06 00:59:26;;;;;;;0.60;0.60;;;-1.00;99.90;;;;;;6087784;23;20229;-84
2021/04/06 01:01:57;;;;;;;0.60;0.60;;;-1.00;99.90;;;;;;6086966;23;20190;-84
2021/04/06 01:04:26;;;;;;;0.60;0.60;;;-1.10;99.90;;;;;;6087992;23;20167;-84
2021/04/06 01:06:58;;;;;;;0.60;0.60;;;-1.10;99.90;;;;;;6088184;23;20190;-84
2021/04/06 01:09:53;;;;;;;0.50;0.50;;;-1.10;99.90;;;;;;6088215;23;20242;-84
2021/04/06 01:12:22;;;;;;;0.50;0.50;;;-1.10;99.90;;;;;;6105147;23;20179;-83
2021/04/06 01:14:51;;;;;;;0.60;0.60;;;-1.00;99.90;;;;;;6087858;23;20739;-83
2021/04/06 01:17:20;;;;;;;0.50;0.50;;;-1.00;99.90;;;;;;6088386;23;20179;-84
2021/04/06 01:19:46;;;;;;;0.60;0.60;;;-1.20;99.90;;;;;;6088529;23;20175;-83
2021/04/06 01:22:15;;;;;;;0.50;0.50;;;-0.90;99.90;;;;;;6088367;23;20237;-83
2021/04/06 01:24:43;;;;;;;0.60;0.60;;;-1.10;99.90;;;;;;6088706;23;20194;-84
2021/04/06 01:27:13;;;;;;;0.60;0.60;;;-1.10;99.90;;;;;;6088499;23;20233;-83
2021/04/06 01:29:40;;;;;;;0.60;0.60;;;-1.20;99.90;;;;;;6088309;23;20531;-84
2021/04/06 01:32:07;;;;;;;0.60;0.60;;;-1.10;99.90;;;;;;6088253;23;20455;-83
2021/04/06 01:34:34;;;;;;;0.55;0.55;;;-1.10;99.90;;;;;;6088445;23;20516;-84
2021/04/06 01:37:01;;;;;;;0.60;0.60;;;-1.00;99.90;;;;;;6088257;23;20237;-83
2021/04/06 01:39:29;;;;;;;0.50;0.50;;;-1.00;99.90;;;;;;6088453;23;20175;-84
2021/04/06 01:42:00;;;;;;;0.60;0.60;;;-1.10;99.90;;;;;;6088075;23;20210;-83
2021/04/06 01:44:26;;;;;;;0.60;0.60;;;-1.00;99.90;;;;;;6088168;23;20636;-84
2021/04/06 01:46:53;;;;;;;0.55;0.55;;;-1.20;99.90;;;;;;6088514;23;20246;-84
2021/04/06 01:49:21;;;;;;;0.60;0.60;;;-1.00;99.90;;;;;;6088145;23;20199;-84
2021/04/06 01:51:48;;;;;;;0.60;0.60;;;-1.00;99.90;;;;;;6088050;23;20195;-83
2021/04/06 01:54:18;;;;;;;0.60;0.60;;;-1.20;99.90;;;;;;6088469;23;20689;-84
2021/04/06 01:56:48;;;;;;;0.60;0.60;;;-1.00;99.90;;;;;;6088514;23;20229;-84
2021/04/06 01:59:21;;;;;;;0.60;0.60;;;-1.00;99.90;;;;;;6088272;23;20560;-84
2021/04/06 02:01:49;;;;;;;0.50;0.50;;;-1.10;99.90;;;;;;6088322;23;20497;-84
2021/04/06 02:04:19;;;;;;;0.60;0.60;;;-1.10;99.90;;;;;;6088436;23;20237;-84
2021/04/06 02:06:46;;;;;;;0.60;0.60;;;-1.10;99.90;;;;;;6088176;23;20671;-84
2021/04/06 02:09:13;;;;;;;0.60;0.60;;;-1.10;99.90;;;;;;6087926;23;20203;-84
2021/04/06 02:11:40;;;;;;;0.60;0.60;;;-1.10;99.90;;;;;;6088251;23;20183;-84
2021/04/06 02:14:08;;;;;;;0.60;0.60;;;-1.10;99.90;;;;;;6087612;23;20203;-84
2021/04/06 02:16:46;;;;;;;0.60;0.60;;;-1.00;99.90;;;;;;6087967;23;20190;-84
2021/04/06 02:19:21;;;;;;;0.60;0.60;;;-1.10;99.90;;;;;;6087858;23;20517;-84
2021/04/06 02:21:51;;;;;;;0.60;0.60;;;-1.00;99.90;;;;;;6088338;23;20190;-84
2021/04/06 02:24:29;;;;;;;0.60;0.60;;;-1.10;99.90;;;;;;6088263;23;20186;-84
2021/04/06 02:27:08;;;;;;;0.60;0.60;;;-1.10;99.90;;;;;;6088059;23;20167;-84
2021/04/06 02:29:40;;;;;;;0.60;0.60;;;-1.10;99.90;;;;;;6088260;23;20183;-84
2021/04/06 02:32:14;;;;;;;0.60;0.60;;;-1.10;99.90;;;;;;6088890;23;20190;-84
2021/04/06 02:34:43;;;;;;;0.50;0.50;;;-1.10;99.90;;;;;;6088447;23;20166;-84
2021/04/06 02:37:18;;;;;;;0.50;0.50;;;-1.10;99.90;;;;;;6087743;23;20201;-83
2021/04/06 02:39:44;;;;;;;0.60;0.60;;;-1.10;99.90;;;;;;6087720;23;20185;-83
2021/04/06 02:42:25;;;;;;;0.60;0.60;;;-1.10;99.90;;;;;;6087540;23;20254;-83
2021/04/06 02:44:56;;;;;;;0.60;0.60;;;-1.10;99.90;;;;;;6088142;23;20175;-84
2021/04/06 02:47:24;;;;;;;0.60;0.60;;;-1.10;99.90;;;;;;6088177;23;20164;-84
2021/04/06 02:49:51;;;;;;;0.60;0.60;;;-1.10;99.90;;;;;;6088174;23;20206;-84
2021/04/06 02:52:18;;;;;;;0.60;0.60;;;-1.20;99.90;;;;;;6088013;23;20199;-84
2021/04/06 02:54:44;;;;;;;0.60;0.60;;;-1.10;99.90;;;;;;6088466;23;20182;-84
2021/04/06 02:57:21;;;;;;;0.60;0.60;;;-1.10;99.90;;;;;;6088122;23;20522;-84
2021/04/06 02:59:47;;;;;;;0.50;0.50;;;-1.10;99.90;;;;;;6088180;23;20186;-84
2021/04/06 03:02:14;;;;;;;0.50;0.50;;;-1.10;99.90;;;;;;6087872;23;20179;-84
2021/04/06 03:04:42;;;;;;;0.60;0.60;;;-1.10;99.90;;;;;;6087671;23;20495;-84
2021/04/06 03:07:20;;;;;;;0.60;0.60;;;-1.10;99.90;;;;;;6087640;23;20183;-84
2021/04/06 03:09:54;;;;;;;0.60;0.60;;;-1.00;99.90;;;;;;6087922;23;20195;-84
2021/04/06 03:12:21;;;;;;;0.60;0.60;;;-0.90;99.90;;;;;;6089760;23;20459;-84
2021/04/06 03:14:50;;;;;;;0.60;0.60;;;-0.90;99.90;;;;;;6088939;23;20206;-84
2021/04/06 03:17:17;;;;;;;0.52;0.52;;;-0.90;99.90;;;;;;6089577;23;20183;-84
2021/04/06 03:19:45;;;;;;;0.60;0.60;;;-0.90;99.90;;;;;;6088877;23;20183;-84
2021/04/06 03:22:12;;;;;;;0.50;0.50;;;-0.90;99.90;;;;;;6088738;23;20183;-84
2021/04/06 03:24:40;;;;;;;0.60;0.60;;;-0.80;99.90;;;;;;6088752;23;20184;-84
2021/04/06 03:27:08;;;;;;;0.50;0.50;;;-0.80;99.90;;;;;;6089030;23;20714;-85
2021/04/06 03:29:35;;;;;;;0.50;0.50;;;-0.80;99.90;;;;;;6088532;23;20195;-85
2021/04/06 03:32:01;;;;;;;0.60;0.60;;;-0.80;99.90;;;;;;6088565;23;20176;-84
2021/04/06 03:34:33;;;;;;;0.60;0.60;;;-0.70;99.90;;;;;;6088652;23;20183;-83
2021/04/06 03:37:03;;;;;;;0.50;0.50;;;-0.70;99.90;;;;;;6088724;23;20214;-84
2021/04/06 03:39:31;;;;;;;0.50;0.50;;;-0.70;99.90;;;;;;6088698;23;20183;-84
2021/04/06 03:41:57;;;;;;;0.50;0.50;;;-0.60;99.90;;;;;;6088159;23;20190;-83
2021/04/06 03:44:28;;;;;;;0.60;0.60;;;-0.60;99.90;;;;;;6088946;23;20180;-84
2021/04/06 03:46:59;;;;;;;0.60;0.60;;;-0.60;99.90;;;;;;6088684;23;20168;-84
2021/04/06 03:49:27;;;;;;;0.60;0.60;;;-0.60;99.90;;;;;;6088869;23;20203;-84
2021/04/06 03:51:55;;;;;;;0.60;0.60;;;-0.30;99.90;;;;;;6088540;23;20214;-83
2021/04/06 03:54:43;;;;;;;0.60;0.60;;;-0.60;99.90;;;;;;6088434;23;20183;-83
2021/04/06 03:57:29;;;;;;;0.60;0.60;;;-0.50;99.90;;;;;;6088794;23;20184;-84
2021/04/06 03:59:55;;;;;;;0.57;0.57;;;-0.50;99.90;;;;;;6088601;23;20250;-84
2021/04/06 04:02:22;;;;;;;0.60;0.60;;;-0.40;99.90;;;;;;6088000;23;20237;-84
2021/04/06 04:04:48;;;;;;;0.60;0.60;;;-0.40;99.90;;;;;;6088682;23;20708;-84
2021/04/06 04:07:15;;;;;;;0.57;0.57;;;-0.50;99.90;;;;;;6088696;23;20183;-84
2021/04/06 04:09:42;;;;;;;0.60;0.60;;;-0.40;99.90;;;;;;6088773;23;20282;-84
2021/04/06 04:12:08;;;;;;;0.50;0.50;;;-0.40;99.90;;;;;;6088355;23;20230;-84
2021/04/06 04:14:35;;;;;;;0.50;0.50;;;-0.40;99.90;;;;;;6087964;23;20885;-84
2021/04/06 04:17:01;;;;;;;0.60;0.60;;;-0.40;99.90;;;;;;6088588;23;20179;-83
2021/04/06 04:19:28;;;;;;;0.60;0.60;;;-0.50;99.90;;;;;;6088616;23;20186;-84
2021/04/06 04:21:54;;;;;;;0.60;0.60;;;-0.40;99.90;;;;;;6087769;23;20187;-84
2021/04/06 04:24:20;;;;;;;0.50;0.50;;;-0.70;99.90;;;;;;6088763;23;20234;-83
2021/04/06 04:26:47;;;;;;;0.60;0.60;;;-0.40;99.90;;;;;;6088477;23;20190;-83
2021/04/06 04:29:14;;;;;;;0.60;0.60;;;-0.40;99.90;;;;;;6088387;23;20222;-83
2021/04/06 04:31:43;;;;;;;0.50;0.50;;;0.80;99.90;;;;;;6088425;23;20241;-84
2021/04/06 04:34:10;;;;;;;0.50;0.50;;;-0.40;99.90;;;;;;6088155;23;20179;-84
2021/04/06 04:36:36;;;;;;;0.60;0.60;;;-0.40;99.90;;;;;;6088588;23;20179;-84
2021/04/06 04:39:03;;;;;;;0.60;0.60;;;-0.40;99.90;;;;;;6088326;23;20187;-84
2021/04/06 04:41:29;;;;;;;0.60;0.60;;;-0.40;99.90;;;;;;6088736;23;20509;-83
2021/04/06 04:43:56;;;;;;;0.60;0.60;;;-0.40;99.90;;;;;;6088025;23;20694;-84
2021/04/06 04:46:23;;;;;;;0.57;0.57;;;0.00;99.90;;;;;;6088294;23;20562;-83
2021/04/06 04:48:49;;;;;;;0.60;0.60;;;-0.40;99.90;;;;;;6088252;23;20199;-84
2021/04/06 04:51:15;;;;;;;0.60;0.60;;;-0.40;99.90;;;;;;6088372;23;20223;-84
2021/04/06 04:53:42;;;;;;;0.60;0.60;;;-0.40;99.90;;;;;;6089201;23;20190;-85
2021/04/06 04:56:08;;;;;;;0.50;0.50;;;0.20;99.90;;;;;;6088527;23;20238;-84
2021/04/06 04:58:34;;;;;;;0.60;0.60;;;-0.30;99.90;;;;;;6088521;23;20629;-84
2021/04/06 05:01:01;;;;;;;0.55;0.55;;;-0.20;99.90;;;;;;6088436;23;20718;-84
2021/04/06 05:03:27;;;;;;;0.60;0.60;;;-0.10;99.90;;;;;;6088730;23;20197;-84
2021/04/06 05:05:53;;;;;;;0.50;0.50;;;-0.10;99.90;;;;;;6088547;23;20185;-85
2021/04/06 05:08:20;;;;;;;0.50;0.50;;;-0.10;99.90;;;;;;6089877;23;20248;-86
2021/04/06 05:10:46;;;;;;;0.60;0.60;;;0.00;99.90;;;;;;6090181;23;20182;-85
2021/04/06 05:13:12;;;;;;;0.60;0.60;;;0.30;99.90;;;;;;6089136;23;20186;-85
2021/04/06 05:15:38;;;;;;;0.57;0.57;;;0.10;99.90;;;;;;6088400;23;20544;-85
2021/04/06 05:18:05;;;;;;;0.60;0.60;;;0.10;99.90;;;;;;6088930;23;20397;-85
2021/04/06 05:20:32;;;;;;;0.55;0.55;;;0.10;99.90;;;;;;6088671;23;20666;-85
2021/04/06 05:22:58;;;;;;;0.50;0.50;;;0.00;99.90;;;;;;6088854;23;20179;-84
2021/04/06 05:25:24;;;;;;;0.60;0.60;;;0.10;99.90;;;;;;6088700;23;20616;-86
2021/04/06 05:27:50;;;;;;;0.60;0.60;;;0.10;99.90;;;;;;6088251;23;20192;-85
2021/04/06 05:30:17;;;;;;;0.52;0.52;;;0.00;99.90;;;;;;6088299;23;20248;-85
2021/04/06 05:32:43;;;;;;;0.60;0.60;;;0.10;99.90;;;;;;6088096;23;20180;-85
2021/04/06 05:35:11;;;;;;;0.60;0.60;;;0.10;99.90;;;;;;6088487;23;20284;-85
2021/04/06 05:37:38;;;;;;;0.60;0.60;;;0.10;99.90;;;;;;6088849;23;20183;-85
2021/04/06 05:40:05;;;;;;;0.60;0.60;;;0.10;99.90;;;;;;6088562;23;20248;-85
2021/04/06 05:42:32;;;;;;;0.50;0.50;;;0.20;99.90;;;;;;6088978;23;20187;-85
2021/04/06 05:44:59;;;;;;;0.60;0.60;;;0.30;99.90;;;;;;6088775;23;20249;-85
2021/04/06 05:47:36;;;;;;;0.60;0.60;;;0.40;99.90;;;;;;6088484;23;20237;-85
2021/04/06 05:50:04;;;;;;;0.50;0.50;;;0.50;99.90;;;;;;6088853;23;20516;-85
2021/04/06 05:52:31;;;;;;;0.50;0.50;;;0.40;99.90;;;;;;6088193;23;20202;-85
2021/04/06 05:54:57;;;;;;;0.60;0.60;;;0.30;99.90;;;;;;6088014;23;20183;-85
2021/04/06 05:57:24;;;;;;;0.60;0.60;;;0.30;99.90;;;;;;6087862;23;20640;-85
2021/04/06 05:59:50;;;;;;;0.60;0.60;;;0.20;99.90;;;;;;6088051;23;20508;-85
2021/04/06 06:02:16;;;;;;;0.60;0.60;;;0.20;99.90;;;;;;6087787;23;20183;-85
2021/04/06 06:04:42;;;;;;;0.60;0.60;;;0.20;99.90;;;;;;6087651;23;20183;-84
2021/04/06 06:07:11;;;;;;;0.57;0.57;;;0.30;99.90;;;;;;6087794;23;20390;-84
2021/04/06 06:09:38;;;;;;;0.60;0.60;;;1.10;99.90;;;;;;6087487;23;20199;-83
2021/04/06 06:12:06;;;;;;;0.60;0.60;;;0.90;99.90;;;;;;6087721;23;20183;-84
2021/04/06 06:14:34;;;;;;;0.50;0.50;;;0.60;99.90;;;;;;6087231;23;20207;-84
2021/04/06 06:17:18;;;;;;;0.60;0.60;;;0.60;99.90;;;;;;6087539;23;20183;-84
2021/04/06 06:19:47;;;;;;;0.50;0.50;;;0.90;99.90;;;;;;6087508;23;20168;-83
2021/04/06 06:22:15;;;;;;;0.55;0.55;;;1.10;99.90;;;;;;6087610;23;20202;-84
2021/04/06 06:24:47;;;;;;;0.50;0.50;;;1.30;99.90;;;;;;6087548;23;20189;-84
2021/04/06 06:27:34;;;;;;;0.60;0.60;;;1.00;99.90;;;;;;6087897;23;20168;-85
2021/04/06 06:30:25;;;;;;;0.60;0.60;;;1.10;99.90;;;;;;6087262;23;20252;-84
2021/04/06 06:33:15;;;;;;;0.60;0.60;;;1.00;99.90;;;;;;6087620;23;20167;-84
2021/04/06 06:35:43;;;;;;;0.50;0.50;;;0.80;99.90;;;;;;6087497;23;20194;-84
2021/04/06 06:38:22;;;;;;;0.50;0.50;;;0.80;99.90;;;;;;6087442;23;20245;-84
2021/04/06 06:40:51;;;;;;;0.60;0.60;;;0.80;99.90;;;;;;6087161;23;20174;-84
2021/04/06 06:43:19;;;;;;;0.60;0.60;;;1.00;99.90;;;;;;6087480;23;20245;-84
2021/04/06 06:45:49;;;;;;;0.60;0.60;;;1.00;99.90;;;;;;6089726;23;20183;-85
2021/04/06 06:48:26;;;;;;;0.57;0.57;;;1.50;99.90;;;;;;6090546;23;20179;-84
2021/04/06 06:50:53;;;;;;;0.60;0.60;;;1.00;99.90;;;;;;6090579;23;20203;-84
2021/04/06 06:53:33;;;;;;;0.60;0.60;;;1.00;99.90;;;;;;6090824;23;20183;-85
2021/04/06 06:56:01;;;;;;;0.60;0.60;;;1.20;99.90;;;;;;6090524;23;20186;-85
2021/04/06 06:58:32;;;;;;;0.50;0.50;;;1.20;99.90;;;;;;6090858;23;20178;-85
2021/04/06 07:00:58;;;;;;;0.50;0.50;;;1.30;99.90;;;;;;6090547;23;20658;-85
2021/04/06 07:03:25;;;;;;;0.50;0.50;;;1.30;99.90;;;;;;6097843;23;20734;-82
2021/04/06 07:05:51;;;;;;;0.60;0.60;;;1.40;99.90;;;;;;6090048;23;20663;-83
2021/04/06 07:08:29;;;;;;;0.60;0.60;;;1.50;99.90;;;;;;6089897;23;20639;-83
2021/04/06 07:10:56;;;;;;;0.60;0.60;;;1.50;99.90;;;;;;6091055;23;20546;-82
2021/04/06 07:13:31;;;;;;;0.52;0.52;;;2.70;99.90;;;;;;6094971;23;20183;-84
2021/04/06 07:15:58;;;;;;;0.60;0.60;;;1.30;99.90;;;;;;6092233;23;20174;-83
2021/04/06 07:18:26;;;;;;;0.60;0.60;;;1.60;99.90;;;;;;6089889;23;20183;-82
2021/04/06 07:20:56;;;;;;;0.57;0.57;;;1.70;99.90;;;;;;6090048;23;20228;-82
2021/04/06 07:23:43;;;;;;;0.60;0.60;;;1.90;99.90;;;;;;6091180;23;20183;-82
2021/04/06 07:26:13;;;;;;;0.60;0.60;;;1.90;99.90;;;;;;6096972;23;20189;-84
2021/04/06 07:28:40;;;;;;;0.60;0.60;;;1.90;99.90;;;;;;6090741;23;20286;-82
2021/04/06 07:31:08;;;;;;;0.50;0.50;;;3.50;99.90;;;;;;6090887;23;20210;-83
2021/04/06 07:33:34;;;;;;;0.50;0.50;;;2.20;99.90;;;;;;6090548;23;20182;-82
2021/04/06 07:36:04;;;;;;;0.60;0.60;;;2.10;99.90;;;;;;6090190;23;20734;-82
2021/04/06 07:38:33;;;;;;;0.60;0.60;;;2.10;99.90;;;;;;6090502;23;20214;-82
2021/04/06 07:41:00;;;;;;;0.60;0.60;;;2.50;99.90;;;;;;6091573;23;20225;-83
2021/04/06 07:43:28;;;;;;;0.60;0.60;;;2.00;99.90;;;;;;6091588;23;20179;-85
2021/04/06 07:45:55;;;;;;;0.50;0.50;;;2.10;99.90;;;;;;6095045;23;20190;-84
2021/04/06 07:48:42;;;;;;;0.52;0.52;;;2.10;99.90;;;;;;6094771;23;20670;-83
2021/04/06 07:51:18;;;;;;;0.55;0.55;;;2.20;99.90;;;;;;6095311;23;20432;-83
2021/04/06 07:53:58;;;;;;;0.52;0.52;;;2.30;99.90;;;;;;6092677;23;20205;-83
2021/04/06 07:56:48;;;;;;;0.60;0.60;;;2.50;99.90;;;;;;6098869;23;20164;-83
2021/04/06 07:59:53;;;;;;;0.60;0.60;;;2.50;99.90;;;;;;6096129;23;20182;-84
2021/04/06 08:02:25;;;;;;;0.60;0.60;;;2.50;99.90;;;;;;6093626;23;20175;-85
2021/04/06 08:04:53;;;;;;;0.60;0.60;;;2.70;99.90;;;;;;6090595;23;20186;-85
2021/04/06 08:07:28;;;;;;;0.60;0.60;;;2.70;99.90;;;;;;6089583;23;20175;-86
2021/04/06 08:09:55;;;;;;;0.60;0.60;;;2.70;99.90;;;;;;6089250;23;20194;-85
2021/04/06 08:12:24;;;;;;;0.50;0.50;;;2.70;99.90;;;;;;6090449;23;20501;-86
2021/04/06 08:14:53;;;;;;;0.60;0.60;;;2.80;99.90;;;;;;6089844;23;20293;-85
2021/04/06 08:17:40;;;;;;;0.60;0.60;;;2.80;99.90;;;;;;6094479;23;20211;-85
2021/04/06 08:20:16;;;;;;;0.60;0.60;;;2.90;99.90;;;;;;6092301;23;20160;-82
2021/04/06 08:22:49;;;;;;;0.60;0.60;;;3.00;99.90;;;;;;6102055;23;20197;-81
2021/04/06 08:25:44;;;;;;;0.50;0.50;;;3.20;99.90;;;;;;6104366;22;20205;-82
2021/04/06 08:28:41;;;;;;;0.50;0.50;;;3.30;99.90;;;;;;6103755;22;20148;-86
2021/04/06 08:31:19;;;;;;;0.55;0.55;;;3.50;99.90;;;;;;6098050;23;20210;-83
2021/04/06 08:33:47;;;;;;;0.55;0.55;;;3.40;99.90;;;;;;6099397;23;20503;-85
2021/04/06 08:36:22;;;;;;;0.60;0.60;;;3.40;99.90;;;;;;6094074;23;20332;-83
2021/04/06 08:38:48;;;;;;;0.60;0.60;;;3.20;99.90;;;;;;6089577;23;20159;-84
2021/04/06 08:41:32;;;;;;;0.55;0.55;;;3.30;99.90;;;;;;6090036;23;20190;-82
2021/04/06 08:44:00;;;;;;;0.60;0.60;;;3.10;99.90;;;;;;6102775;23;20175;-82
2021/04/06 08:46:40;;;;;;;0.60;0.60;;;3.00;99.90;;;;;;6102245;22;20175;-84
2021/04/06 08:49:12;;;;;;;0.60;0.60;;;3.00;99.90;;;;;;6088331;23;20195;-87
2021/04/06 08:51:40;;;;;;;0.60;0.60;;;3.00;99.90;;;;;;6084720;23;20289;-86
2021/04/06 08:54:09;;;;;;;0.50;0.50;;;2.70;99.90;;;;;;6088387;23;20179;-87
2021/04/06 08:56:37;;;;;;;0.60;0.60;;;2.60;99.90;;;;;;6090102;23;20194;-88
2021/04/06 08:59:14;;;;;;;0.60;0.60;;;2.80;99.90;;;;;;6090404;23;20176;-87
2021/04/06 09:01:41;;;;;;;0.50;0.50;;;2.80;99.90;;;;;;6089429;23;21002;-87
2021/04/06 09:04:17;;;;;;;0.60;0.60;;;2.90;99.90;;;;;;6085156;23;20183;-87
2021/04/06 09:06:44;;;;;;;0.60;0.60;;;3.10;99.90;;;;;;6088362;23;20187;-89
2021/04/06 09:09:12;;;;;;;0.60;0.60;;;5.30;99.90;;;;;;6085876;23;20226;-87
2021/04/06 09:11:42;;;;;;;0.60;0.60;;;4.60;99.90;;;;;;6089347;23;20262;-86
2021/04/06 09:14:09;;;;;;;0.57;0.57;;;3.00;99.90;;;;;;6104211;23;20214;-86
2021/04/06 09:16:36;;;;;;;0.60;0.60;;;4.90;99.90;;;;;;6119346;23;20183;-86
2021/04/06 09:19:07;;;;;;;0.60;0.60;;;2.80;99.90;;;;;;6119044;23;20186;-87
2021/04/06 09:21:34;;;;;;;0.60;0.60;;;2.80;99.90;;;;;;6122459;23;20627;-86
2021/04/06 09:24:05;;;;;;;0.60;0.60;;;5.70;99.90;;;;;;6106060;23;20290;-87
2021/04/06 09:26:32;;;;;;;0.50;0.50;;;2.90;99.90;;;;;;6109967;23;20159;-88
2021/04/06 09:29:01;;;;;;;0.60;0.60;;;3.20;99.90;;;;;;6116059;23;20204;-87
2021/04/06 09:31:27;;;;;;;0.60;0.60;;;2.70;99.90;;;;;;6116067;23;20206;-87
2021/04/06 09:34:02;;;;;;;0.50;0.50;;;3.60;99.90;;;;;;6117192;23;20213;-86
2021/04/06 09:36:29;;;;;;;0.50;0.50;;;4.10;99.90;;;;;;6116994;23;20178;-87
2021/04/06 09:38:56;;;;;;;0.60;0.60;;;4.20;99.90;;;;;;6117086;23;20186;-87
2021/04/06 09:41:28;;;;;;;0.60;0.60;;;3.90;99.90;;;;;;6116792;23;20185;-86
2021/04/06 09:43:55;;;;;;;0.60;0.60;;;4.00;99.90;;;;;;6118274;23;20170;-87
2021/04/06 09:46:21;;;;;;;0.60;0.60;;;3.80;99.90;;;;;;6115743;23;20186;-87
2021/04/06 09:48:54;;;;;;;0.60;0.60;;;3.80;99.90;;;;;;6122796;23;20186;-87
2021/04/06 09:51:20;;;;;;;0.50;0.50;;;3.80;99.90;;;;;;6120288;23;20277;-87
2021/04/06 09:53:47;;;;;;;0.60;0.60;;;3.70;99.90;;;;;;6123902;23;20210;-85
2021/04/06 09:56:15;;;;;;;0.60;0.60;;;3.90;99.90;;;;;;6126519;23;20178;-87
2021/04/06 09:58:42;;;;;;;0.60;0.60;;;3.60;99.90;;;;;;6124692;23;20198;-86
2021/04/06 10:01:17;;;;;;;0.60;0.60;;;4.10;99.90;;;;;;6128185;23;20178;-85
2021/04/06 10:03:45;;;;;;;0.50;0.50;;;5.50;99.90;;;;;;6134655;23;20276;-85
2021/04/06 10:06:14;;;;;;;0.60;0.60;;;4.40;99.90;;;;;;6118966;23;20198;-86
2021/04/06 10:08:41;;;;;;;0.60;0.60;;;4.30;99.90;;;;;;6118235;23;20179;-88
2021/04/06 10:11:09;;;;;;;0.60;0.60;;;4.20;99.90;;;;;;6125683;23;20166;-87
2021/04/06 10:13:39;;;;;;;0.60;0.60;;;4.30;99.90;;;;;;6123257;23;20189;-86
2021/04/06 10:16:08;;;;;;;0.60;0.60;;;4.30;99.90;;;;;;6109882;23;20202;-84
2021/04/06 10:18:39;;;;;;;0.60;0.60;;;4.30;99.90;;;;;;6094089;23;20211;-86
2021/04/06 10:24:13;;;;;;;0.60;0.60;;;4.00;99.90;;;;;;6084883;22;20294;-84
2021/04/06 10:26:40;;;;;;;0.60;0.60;;;5.40;99.90;;;;;;6106578;22;20151;-84
2021/04/06 10:29:10;;;;;;;0.60;0.60;;;3.80;99.90;;;;;;6107898;23;20253;-84
2021/04/06 10:31:59;;;;;;;0.60;0.60;;;4.00;99.90;;;;;;6101188;23;20389;-85
2021/04/06 10:37:04;;;;;;;0.60;0.60;;;4.20;99.90;;;;;;6089599;22;20226;-86
2021/04/06 10:48:44;;;;;;;0.50;0.50;;;3.50;99.90;;;;;;6086960;22;20238;-84
2021/04/06 10:51:21;;;;;;;0.60;0.60;;;5.70;99.90;;;;;;6112931;23;20350;-85
2021/04/06 10:56:26;;;;;;;0.57;0.57;;;3.50;99.90;;;;;;6090960;22;20218;-85
2021/04/06 10:58:55;;;;;;;0.50;0.50;;;3.60;99.90;;;;;;6094943;23;20177;-83
2021/04/06 11:01:25;;;;;;;0.60;0.60;;;3.40;99.90;;;;;;6095729;22;20231;-82
2021/04/06 11:03:54;;;;;;;0.60;0.60;;;6.30;99.90;;;;;;6096129;23;20179;-84
2021/04/06 11:06:29;;;;;;;0.57;0.57;;;2.90;99.90;;;;;;6103053;22;20183;-87
2021/04/06 11:08:59;;;;;;;0.60;0.60;;;2.50;99.90;;;;;;6091817;23;20199;-84
2021/04/06 11:11:28;;;;;;;0.50;0.50;;;3.60;99.90;;;;;;6087510;23;20206;-85
2021/04/06 11:13:59;;;;;;;0.60;0.60;;;4.80;99.90;;;;;;6089171;23;20179;-84
2021/04/06 11:16:27;;;;;;;0.50;0.50;;;3.10;99.90;;;;;;6089916;23;20224;-84
2021/04/06 11:18:59;;;;;;;0.60;0.60;;;3.10;99.90;;;;;;6089536;23;20198;-83
2021/04/06 11:21:26;;;;;;;0.60;0.60;;;4.40;99.90;;;;;;6088863;23;20270;-84
2021/04/06 11:23:52;;;;;;;0.60;0.60;;;3.40;99.90;;;;;;6088647;23;20183;-84
2021/04/06 11:26:21;;;;;;;0.60;0.60;;;2.80;99.90;;;;;;6088452;23;20187;-84
2021/04/06 11:28:48;;;;;;;0.60;0.60;;;3.50;99.90;;;;;;6088349;23;20186;-84
2021/04/06 11:31:15;;;;;;;0.60;0.60;;;3.40;99.90;;;;;;6089531;23;20179;-83
2021/04/06 11:33:42;;;;;;;0.50;0.50;;;2.90;99.90;;;;;;6089497;23;20731;-84
2021/04/06 11:36:09;;;;;;;0.60;0.60;;;3.40;99.90;;;;;;6088298;23;20194;-86
2021/04/06 11:38:35;;;;;;;0.60;0.60;;;3.00;99.90;;;;;;6090427;23;20175;-85
2021/04/06 11:41:02;;;;;;;0.60;0.60;;;2.70;99.90;;;;;;6089921;23;20205;-83
2021/04/06 11:43:28;;;;;;;0.50;0.50;;;1.90;99.90;;;;;;6090640;23;20262;-84
2021/04/06 11:45:54;;;;;;;0.55;0.55;;;1.20;99.90;;;;;;6091651;23;20179;-83
2021/04/06 11:48:21;;;;;;;0.60;0.60;;;1.00;99.90;;;;;;6091002;23;20341;-83
2021/04/06 11:50:51;;;;;;;0.60;0.60;;;1.00;99.90;;;;;;6119398;23;20203;-83
2021/04/06 11:53:21;;;;;;;0.50;0.50;;;1.00;99.90;;;;;;6245377;22;20164;-84
2021/04/06 11:55:51;;;;;;;0.50;0.50;;;1.50;99.90;;;;;;6243462;22;20196;-84
2021/04/06 11:58:17;;;;;;;0.57;0.57;;;1.90;99.90;;;;;;6244441;23;20186;-85
2021/04/06 12:00:44;;;;;;;0.60;0.60;;;2.60;99.90;;;;;;6244343;23;20563;-84
2021/04/06 12:03:10;;;;;;;0.57;0.57;;;2.60;99.90;;;;;;6244892;23;20184;-83
2021/04/06 12:05:36;;;;;;;0.50;0.50;;;3.20;99.90;;;;;;6244414;23;20625;-82
2021/04/06 12:08:04;;;;;;;0.50;0.50;;;3.00;99.90;;;;;;6243346;23;20190;-82
2021/04/06 12:10:32;;;;;;;0.60;0.60;;;3.60;99.90;;;;;;6241175;23;20192;-81
2021/04/06 12:12:58;;;;;;;0.50;0.50;;;3.70;99.90;;;;;;6242415;23;20179;-81
2021/04/06 12:15:25;;;;;;;0.50;0.50;;;3.90;99.90;;;;;;6241713;23;20172;-82
2021/04/06 12:17:51;;;;;;;0.60;0.60;;;4.00;99.90;;;;;;6241932;23;20172;-82
2021/04/06 12:20:20;;;;;;;0.60;0.60;;;4.10;99.90;;;;;;6241648;23;20179;-82
2021/04/06 12:22:46;;;;;;;0.60;0.60;;;4.40;99.90;;;;;;6242054;23;20176;-82
2021/04/06 12:25:14;;;;;;;0.60;0.60;;;4.60;99.90;;;;;;6240018;23;20168;-83
2021/04/06 12:27:41;;;;;;;0.60;0.60;;;4.80;99.90;;;;;;6244219;23;20183;-84
2021/04/06 12:30:08;;;;;;;0.50;0.50;;;5.10;99.90;;;;;;6246312;23;20283;-85
2021/04/06 12:32:45;;;;;;;0.60;0.60;;;5.20;99.90;;;;;;6245609;23;20629;-83
2021/04/06 12:35:16;;;;;;;0.60;0.60;;;7.10;99.90;;;;;;6270712;23;20166;-84
2021/04/06 12:37:42;;;;;;;0.60;0.60;;;7.20;99.90;;;;;;6253119;23;20167;-83
2021/04/06 12:40:16;;;;;;;0.60;0.60;;;3.30;99.90;;;;;;6253343;23;20180;-83
2021/04/06 12:42:42;;;;;;;0.60;0.60;;;5.40;99.90;;;;;;6241138;23;20188;-82
2021/04/06 12:45:11;;;;;;;0.57;0.57;;;2.30;99.90;;;;;;6241077;23;20190;-82
2021/04/06 12:47:39;;;;;;;0.60;0.60;;;1.80;99.90;;;;;;6246855;22;20558;-81
2021/04/06 12:50:06;;;;;;;0.50;0.50;;;1.20;99.90;;;;;;6246053;23;20245;-81
2021/04/06 12:52:33;;;;;;;0.60;0.60;;;1.00;99.90;;;;;;6257157;23;20196;-82
2021/04/06 13:21:55;;;;;;;0.60;0.60;;;0.70;99.90;;;;;;6077722;22;20421;31
2021/04/06 13:24:22;;;;;;;0.50;0.50;;;4.90;99.90;;;;;;6033658;23;20188;-83
2021/04/06 13:26:51;;;;;;;0.60;0.60;;;0.80;99.90;;;;;;6059041;23;20181;-80
2021/04/06 13:29:20;;;;;;;0.52;0.52;;;1.10;99.90;;;;;;6056998;23;20213;-80
2021/04/06 13:31:48;;;;;;;0.60;0.60;;;0.80;99.90;;;;;;6055488;23;20499;-80
2021/04/06 13:34:24;;;;;;;0.50;0.50;;;1.10;99.90;;;;;;6053999;23;20188;-82
2021/04/06 13:36:54;;;;;;;0.55;0.55;;;1.10;99.90;;;;;;6057036;23;20169;-82
2021/04/06 13:39:25;;;;;;;0.60;0.60;;;2.30;99.90;;;;;;6049425;23;20187;-80
2021/04/06 13:41:54;;;;;;;0.60;0.60;;;0.00;99.90;;;;;;6047569;23;20200;-82
2021/04/06 13:44:22;;;;;;;0.50;0.50;;;3.80;99.90;;;;;;6037655;23;20203;-82
2021/04/06 13:46:49;;;;;;;0.50;0.50;;;1.10;99.90;;;;;;6071671;23;20215;-80
2021/04/06 13:49:15;;;;;;;0.50;0.50;;;1.90;99.90;;;;;;6101579;23;20233;-80
2021/04/06 13:51:42;;;;;;;0.60;0.60;;;1.40;99.90;;;;;;6110326;23;20210;-80